createdAt,value
2023-01-19T00:00:51.459Z,955.5700
2023-01-19T00:01:53.868Z,955.5700
2023-01-19T00:02:54.133Z,955.5700
2023-01-19T00:03:56.511Z,955.5900
2023-01-19T00:04:58.866Z,955.6100
2023-01-19T00:05:59.129Z,955.5900
2023-01-19T00:07:01.506Z,955.5900
2023-01-19T00:08:03.816Z,955.5900
2023-01-19T00:09:04.022Z,955.6100
2023-01-19T00:10:06.383Z,955.6300
2023-01-19T00:11:08.728Z,955.6300
2023-01-19T00:12:09.018Z,955.6500
2023-01-19T00:13:11.275Z,955.6700
2023-01-19T00:14:13.587Z,955.6700
2023-01-19T00:16:37.725Z,955.6700
2023-01-19T00:17:40.003Z,955.7100
2023-01-19T00:18:42.281Z,955.7100
2023-01-19T00:19:42.453Z,955.6700
2023-01-19T00:20:44.803Z,955.6900
2023-01-19T00:21:47.144Z,955.6900
2023-01-19T00:22:49.620Z,955.6900
2023-01-19T00:23:51.851Z,955.6700
2023-01-19T00:24:52.084Z,955.6900
2023-01-19T00:25:54.421Z,955.6700
2023-01-19T00:26:56.721Z,955.6900
2023-01-19T00:28:01.437Z,955.6900
2023-01-19T00:29:01.410Z,955.7100
2023-01-19T00:30:03.690Z,955.6900
2023-01-19T00:31:03.946Z,955.6900
2023-01-19T00:32:06.151Z,955.7100
2023-01-19T00:33:08.536Z,955.7100
2023-01-19T00:34:10.839Z,955.7300
2023-01-19T00:35:13.185Z,955.6900
2023-01-19T00:36:13.386Z,955.7100
2023-01-19T00:37:15.714Z,955.7100
2023-01-19T00:38:18.119Z,955.7300
2023-01-19T00:39:20.412Z,955.7300
2023-01-19T00:40:22.756Z,955.7500
2023-01-19T00:41:22.955Z,955.7300
2023-01-19T00:42:25.307Z,955.7300
2023-01-19T00:43:27.683Z,955.7700
2023-01-19T00:44:29.968Z,955.7500
2023-01-19T00:45:32.397Z,955.7300
2023-01-19T00:46:32.574Z,955.7300
2023-01-19T00:47:34.960Z,955.7300
2023-01-19T00:48:37.361Z,955.7100
2023-01-19T00:49:39.665Z,955.6900
2023-01-19T00:50:42.044Z,955.6700
2023-01-19T00:51:42.302Z,955.6900
2023-01-19T00:52:44.676Z,955.6900
2023-01-19T00:53:47.097Z,955.7300
2023-01-19T00:54:47.276Z,955.7100
2023-01-19T00:55:49.701Z,955.7500
2023-01-19T00:56:52.062Z,955.7700
2023-01-19T00:57:54.463Z,955.7500
2023-01-19T00:58:54.834Z,955.7900
2023-01-19T00:59:57.103Z,955.7700
2023-01-19T01:00:59.544Z,955.7900
2023-01-19T01:02:02.127Z,955.7900
2023-01-19T01:03:04.955Z,955.7900
2023-01-19T01:04:04.646Z,955.8300
2023-01-19T01:05:06.906Z,955.8300
2023-01-19T01:06:09.282Z,955.8300
2023-01-19T01:07:11.694Z,955.8300
2023-01-19T01:08:11.894Z,955.8600
2023-01-19T01:09:14.310Z,955.8800
2023-01-19T01:10:16.632Z,955.8600
2023-01-19T01:11:19.025Z,955.8800
2023-01-19T01:12:19.153Z,955.8800
2023-01-19T01:13:23.558Z,955.8600
2023-01-19T01:14:23.924Z,955.8800
2023-01-19T01:15:26.217Z,955.8800
2023-01-19T01:16:28.558Z,955.8800
2023-01-19T01:17:28.699Z,955.9000
2023-01-19T01:18:31.056Z,955.8600
2023-01-19T01:19:33.587Z,955.8600
2023-01-19T01:20:35.859Z,955.8800
2023-01-19T01:21:36.126Z,955.8500
2023-01-19T01:22:38.525Z,955.8800
2023-01-19T01:23:40.948Z,955.9000
2023-01-19T01:24:43.361Z,955.8500
2023-01-19T01:25:43.614Z,955.8600
2023-01-19T01:26:46.017Z,955.9000
2023-01-19T01:27:48.363Z,955.9200
2023-01-19T01:28:50.723Z,955.9400
2023-01-19T01:29:53.102Z,955.9400
2023-01-19T01:30:53.254Z,955.9600
2023-01-19T01:31:55.631Z,955.9400
2023-01-19T01:32:58.187Z,955.9600
2023-01-19T01:34:00.241Z,956.0000
2023-01-19T01:35:00.493Z,956.0000
2023-01-19T01:36:02.829Z,956.0000
2023-01-19T01:37:05.160Z,956.0400
2023-01-19T01:38:07.492Z,956.0400
2023-01-19T01:39:09.794Z,956.0200
2023-01-19T01:40:10.057Z,956.0200
2023-01-19T01:41:12.375Z,956.0200
2023-01-19T01:42:14.763Z,956.0200
2023-01-19T01:43:17.085Z,956.0400
2023-01-19T01:44:19.445Z,956.0000
2023-01-19T01:45:58.562Z,956.0200
2023-01-19T01:47:00.659Z,956.0000
2023-01-19T01:48:02.960Z,956.0200
2023-01-19T01:49:05.256Z,956.0600
2023-01-19T01:50:07.576Z,956.0600
2023-01-19T01:51:07.877Z,956.0800
2023-01-19T01:52:10.040Z,956.1200
2023-01-19T01:53:12.579Z,956.1200
2023-01-19T01:54:14.766Z,956.1400
2023-01-19T01:55:17.086Z,956.1400
2023-01-19T01:56:19.443Z,956.1600
2023-01-19T01:57:19.652Z,956.1600
2023-01-19T01:58:22.018Z,956.1400
2023-01-19T01:59:24.405Z,956.1400
2023-01-19T02:00:26.779Z,956.1600
2023-01-19T02:01:29.204Z,956.1600
2023-01-19T02:02:29.351Z,956.1400
2023-01-19T02:03:31.784Z,956.1200
2023-01-19T02:04:34.086Z,956.1000
2023-01-19T02:05:36.385Z,956.0800
2023-01-19T02:06:36.548Z,956.1000
2023-01-19T02:07:38.761Z,956.1200
2023-01-19T02:08:41.053Z,956.1400
2023-01-19T02:09:43.314Z,956.1200
2023-01-19T02:10:45.632Z,956.1600
2023-01-19T02:11:47.934Z,956.1600
2023-01-19T02:12:50.192Z,956.1600
2023-01-19T02:13:52.405Z,956.1600
2023-01-19T02:14:52.503Z,956.2000
2023-01-19T02:15:54.763Z,956.2000
2023-01-19T02:16:57.088Z,956.2000
2023-01-19T02:17:59.330Z,956.1600
2023-01-19T02:19:01.682Z,956.1600
2023-01-19T02:20:04.021Z,956.2000
2023-01-19T02:21:04.227Z,956.1800
2023-01-19T02:22:06.544Z,956.2200
2023-01-19T02:23:08.846Z,956.2000
2023-01-19T02:24:11.162Z,956.2000
2023-01-19T02:25:13.484Z,956.2200
2023-01-19T02:26:15.804Z,956.2000
2023-01-19T02:27:16.026Z,956.1600
2023-01-19T02:28:18.319Z,956.1800
2023-01-19T02:29:20.586Z,956.1600
2023-01-19T02:30:22.984Z,956.2000
2023-01-19T02:31:25.221Z,956.1800
2023-01-19T02:32:27.604Z,956.1800
2023-01-19T02:33:27.756Z,956.1800
2023-01-19T02:34:30.070Z,956.1600
2023-01-19T02:35:32.442Z,956.1600
2023-01-19T02:36:34.774Z,956.1800
2023-01-19T02:37:37.188Z,956.2000
2023-01-19T02:38:37.353Z,956.2200
2023-01-19T02:39:39.731Z,956.2400
2023-01-19T02:40:42.043Z,956.2000
2023-01-19T02:41:44.397Z,956.2200
2023-01-19T02:42:46.772Z,956.2400
2023-01-19T02:43:46.977Z,956.2400
2023-01-19T02:44:49.303Z,956.2400
2023-01-19T02:45:51.696Z,956.2600
2023-01-19T02:46:54.006Z,956.2400
2023-01-19T02:47:56.419Z,956.2600
2023-01-19T02:48:56.607Z,956.2400
2023-01-19T02:49:58.973Z,956.2800
2023-01-19T02:51:01.290Z,956.3000
2023-01-19T02:52:03.597Z,956.2800
2023-01-19T02:53:03.807Z,956.3200
2023-01-19T02:54:06.108Z,956.3200
2023-01-19T02:55:08.438Z,956.3300
2023-01-19T02:56:10.787Z,956.3200
2023-01-19T02:57:13.081Z,956.3500
2023-01-19T02:58:13.315Z,956.3300
2023-01-19T02:59:15.638Z,956.3300
2023-01-19T03:00:17.876Z,956.3700
2023-01-19T03:01:20.209Z,956.3500
2023-01-19T03:02:22.609Z,956.3700
2023-01-19T03:03:24.798Z,956.4100
2023-01-19T03:04:24.987Z,956.3700
2023-01-19T03:05:27.307Z,956.3900
2023-01-19T03:06:29.652Z,956.3900
2023-01-19T03:07:31.959Z,956.4100
2023-01-19T03:08:34.332Z,956.4100
2023-01-19T03:09:36.621Z,956.4100
2023-01-19T03:10:36.812Z,956.4300
2023-01-19T03:11:39.155Z,956.4300
2023-01-19T03:12:41.480Z,956.4700
2023-01-19T03:13:43.848Z,956.4500
2023-01-19T03:14:46.114Z,956.4500
2023-01-19T03:15:48.479Z,956.4500
2023-01-19T03:16:48.867Z,956.4500
2023-01-19T03:17:50.947Z,956.4300
2023-01-19T03:18:53.332Z,956.4700
2023-01-19T03:19:55.593Z,956.4100
2023-01-19T03:20:57.847Z,956.4300
2023-01-19T03:21:58.030Z,956.4500
2023-01-19T03:22:58.740Z,956.4300
2023-01-19T03:24:00.585Z,956.4300
2023-01-19T03:25:02.930Z,956.4100
2023-01-19T03:26:05.265Z,956.4300
2023-01-19T03:27:07.592Z,956.4500
2023-01-19T03:28:07.799Z,956.4500
2023-01-19T03:29:10.286Z,956.4500
2023-01-19T03:30:12.574Z,956.4500
2023-01-19T03:31:14.975Z,956.4500
2023-01-19T03:32:15.158Z,956.4100
2023-01-19T03:33:17.523Z,956.4500
2023-01-19T03:34:19.847Z,956.4500
2023-01-19T03:35:22.183Z,956.4900
2023-01-19T03:36:22.408Z,956.4700
2023-01-19T03:37:24.828Z,956.4900
2023-01-19T03:38:27.223Z,956.4900
2023-01-19T03:39:29.683Z,956.4900
2023-01-19T03:41:38.811Z,956.5100
2023-01-19T03:42:41.066Z,956.4900
2023-01-19T03:43:43.361Z,956.4900
2023-01-19T03:44:43.562Z,956.4900
2023-01-19T03:45:45.894Z,956.4900
2023-01-19T03:46:48.208Z,956.5100
2023-01-19T03:47:50.570Z,956.5100
2023-01-19T03:49:46.824Z,956.5100
2023-01-19T03:50:49.048Z,956.5300
2023-01-19T03:51:49.233Z,956.5300
2023-01-19T03:52:51.539Z,956.5100
2023-01-19T03:53:53.880Z,956.5300
2023-01-19T03:54:56.203Z,956.5500
2023-01-19T03:55:58.527Z,956.5700
2023-01-19T03:57:00.897Z,956.5900
2023-01-19T03:58:01.122Z,956.5700
2023-01-19T03:59:03.471Z,956.6100
2023-01-19T04:00:05.856Z,956.6300
2023-01-19T04:01:08.315Z,956.6500
2023-01-19T04:02:10.612Z,956.6500
2023-01-19T04:03:10.794Z,956.6300
2023-01-19T04:04:13.028Z,956.6500
2023-01-19T04:05:15.385Z,956.6700
2023-01-19T04:06:17.709Z,956.6700
2023-01-19T04:07:20.057Z,956.6900
2023-01-19T04:08:20.260Z,956.6700
2023-01-19T04:09:22.551Z,956.6900
2023-01-19T04:10:24.859Z,956.6900
2023-01-19T04:11:27.077Z,956.6500
2023-01-19T04:12:29.343Z,956.6700
2023-01-19T04:13:31.581Z,956.6500
2023-01-19T04:14:33.845Z,956.6500
2023-01-19T04:15:36.204Z,956.6500
2023-01-19T04:16:36.317Z,956.6300
2023-01-19T04:17:38.507Z,956.6300
2023-01-19T04:18:40.796Z,956.6500
2023-01-19T04:19:43.078Z,956.6500
2023-01-19T04:20:44.253Z,956.6500
2023-01-19T04:21:46.505Z,956.6300
2023-01-19T04:22:48.781Z,956.6500
2023-01-19T04:23:51.068Z,956.6300
2023-01-19T04:24:53.362Z,956.6100
2023-01-19T04:25:53.500Z,956.6100
2023-01-19T04:26:55.763Z,956.6300
2023-01-19T04:27:57.984Z,956.6300
2023-01-19T04:29:00.295Z,956.6300
2023-01-19T04:30:00.443Z,956.6300
2023-01-19T04:31:02.837Z,956.6500
2023-01-19T04:32:05.056Z,956.6700
2023-01-19T04:33:07.336Z,956.6700
2023-01-19T04:34:07.457Z,956.6500
2023-01-19T04:35:09.848Z,956.6300
2023-01-19T04:36:12.301Z,956.6700
2023-01-19T04:37:12.405Z,956.6700
2023-01-19T04:38:14.758Z,956.6900
2023-01-19T04:39:17.122Z,956.6900
2023-01-19T04:40:17.334Z,956.6700
2023-01-19T04:41:19.777Z,956.6900
2023-01-19T04:42:22.091Z,956.7100
2023-01-19T04:43:22.319Z,956.6900
2023-01-19T04:44:24.557Z,956.7100
2023-01-19T04:45:26.869Z,956.7900
2023-01-19T04:46:29.198Z,956.7900
2023-01-19T04:47:29.462Z,956.8100
2023-01-19T04:48:31.588Z,956.7900
2023-01-19T04:49:33.943Z,956.7100
2023-01-19T04:50:36.233Z,956.8500
2023-01-19T04:51:38.609Z,956.8300
2023-01-19T04:52:40.892Z,956.8100
2023-01-19T04:53:41.164Z,956.8500
2023-01-19T04:54:43.528Z,956.8600
2023-01-19T04:55:45.936Z,956.8600
2023-01-19T04:56:46.168Z,956.9000
2023-01-19T04:57:48.547Z,956.9200
2023-01-19T04:58:50.964Z,956.9200
2023-01-19T04:59:51.178Z,956.9200
2023-01-19T05:00:53.657Z,956.9400
2023-01-19T05:01:56.157Z,956.9400
2023-01-19T05:02:56.266Z,956.9600
2023-01-19T05:03:58.555Z,956.9800
2023-01-19T05:05:00.939Z,956.9600
2023-01-19T05:06:03.271Z,957.0000
2023-01-19T05:07:05.715Z,956.9800
2023-01-19T05:08:07.879Z,957.0000
2023-01-19T05:09:07.999Z,957.0000
2023-01-19T05:10:10.300Z,957.0200
2023-01-19T05:11:12.617Z,957.0200
2023-01-19T05:12:14.949Z,957.0000
2023-01-19T05:13:17.271Z,956.9800
2023-01-19T05:14:19.610Z,957.0200
2023-01-19T05:15:19.790Z,957.0200
2023-01-19T05:16:22.160Z,957.0200
2023-01-19T05:17:24.446Z,957.0600
2023-01-19T05:18:26.770Z,957.0200
2023-01-19T05:19:26.923Z,957.0400
2023-01-19T05:20:29.276Z,957.0800
2023-01-19T05:21:31.589Z,957.0800
2023-01-19T05:22:31.824Z,957.0800
2023-01-19T05:23:34.215Z,957.0400
2023-01-19T05:24:36.516Z,957.0400
2023-01-19T05:25:36.712Z,957.0600
2023-01-19T05:26:39.065Z,957.0400
2023-01-19T05:27:41.448Z,957.0600
2023-01-19T05:28:43.755Z,957.0800
2023-01-19T05:29:46.055Z,957.1400
2023-01-19T05:30:48.427Z,957.0600
2023-01-19T05:31:48.686Z,957.0600
2023-01-19T05:32:50.951Z,957.1200
2023-01-19T05:33:53.271Z,957.1000
2023-01-19T05:34:55.580Z,957.0800
2023-01-19T05:35:57.916Z,957.0800
2023-01-19T05:37:00.266Z,957.1000
2023-01-19T05:38:02.650Z,957.1000
2023-01-19T05:39:04.973Z,957.1200
2023-01-19T05:40:07.340Z,957.1600
2023-01-19T05:41:07.562Z,957.1600
2023-01-19T05:42:09.942Z,957.1400
2023-01-19T05:43:12.347Z,957.1600
2023-01-19T05:44:12.591Z,957.1600
2023-01-19T05:45:14.967Z,957.1800
2023-01-19T05:46:17.448Z,957.2200
2023-01-19T05:48:33.993Z,957.1800
2023-01-19T05:50:35.417Z,957.2400
2023-01-19T05:51:37.755Z,957.2400
2023-01-19T05:52:40.083Z,957.2200
2023-01-19T05:53:42.467Z,957.2200
2023-01-19T05:54:42.657Z,957.2200
2023-01-19T05:55:45.032Z,957.2000
2023-01-19T05:56:47.393Z,957.2400
2023-01-19T05:57:49.713Z,957.2200
2023-01-19T05:58:52.125Z,957.2400
2023-01-19T05:59:52.294Z,957.2200
2023-01-19T06:00:54.671Z,957.2200
2023-01-19T06:01:56.972Z,957.2400
2023-01-19T06:02:59.772Z,957.2400
2023-01-19T06:04:01.688Z,957.2400
2023-01-19T06:05:01.833Z,957.2500
2023-01-19T06:06:04.195Z,957.2700
2023-01-19T06:07:06.535Z,957.2700
2023-01-19T06:08:08.856Z,957.3000
2023-01-19T06:09:11.240Z,957.3200
2023-01-19T06:10:11.398Z,957.3500
2023-01-19T06:11:13.734Z,957.3500
2023-01-19T06:12:16.073Z,957.3700
2023-01-19T06:13:18.353Z,957.3900
2023-01-19T06:14:20.673Z,957.3700
2023-01-19T06:15:23.029Z,957.3900
2023-01-19T06:16:23.179Z,957.3900
2023-01-19T06:17:25.488Z,957.3700
2023-01-19T06:18:27.844Z,957.4100
2023-01-19T06:19:30.189Z,957.3700
2023-01-19T06:20:32.493Z,957.3700
2023-01-19T06:21:34.855Z,957.3500
2023-01-19T06:22:35.007Z,957.3200
2023-01-19T06:23:37.375Z,957.3200
2023-01-19T06:24:39.828Z,957.2400
2023-01-19T06:25:40.105Z,957.2700
2023-01-19T06:26:40.425Z,957.3000
2023-01-19T06:27:42.930Z,957.2700
2023-01-19T06:28:45.435Z,957.2700
2023-01-19T06:29:47.933Z,957.3200
2023-01-19T06:30:50.390Z,957.3700
2023-01-19T06:32:46.822Z,957.4500
2023-01-19T06:33:49.186Z,957.4300
2023-01-19T06:34:49.492Z,957.4500
2023-01-19T06:35:50.701Z,957.4300
2023-01-19T06:36:52.126Z,957.4500
2023-01-19T06:37:52.336Z,957.5100
2023-01-19T06:38:54.722Z,957.5100
2023-01-19T06:39:57.087Z,957.5500
2023-01-19T06:40:59.455Z,957.5500
2023-01-19T06:42:01.758Z,957.5500
2023-01-19T06:43:02.357Z,957.5700
2023-01-19T06:44:04.309Z,957.5900
2023-01-19T06:45:06.707Z,957.5900
2023-01-19T06:46:09.130Z,957.6100
2023-01-19T06:47:15.567Z,957.6100
2023-01-19T06:48:11.631Z,957.6100
2023-01-19T06:49:14.009Z,957.6500
2023-01-19T06:50:16.382Z,957.6300
2023-01-19T06:51:18.687Z,957.6500
2023-01-19T06:52:18.934Z,957.6900
2023-01-19T06:53:21.324Z,957.6900
2023-01-19T06:54:23.692Z,957.6900
2023-01-19T06:55:27.890Z,957.6900
2023-01-19T06:56:28.496Z,957.6700
2023-01-19T06:57:28.791Z,957.6900
2023-01-19T06:58:31.136Z,957.6900
2023-01-19T06:59:33.476Z,957.7100
2023-01-19T07:00:35.816Z,957.7100
2023-01-19T07:01:36.099Z,957.7300
2023-01-19T07:02:38.524Z,957.7300
2023-01-19T07:03:40.759Z,957.7500
2023-01-19T07:04:43.103Z,957.7500
2023-01-19T07:05:45.445Z,957.7300
2023-01-19T07:06:45.576Z,957.7900
2023-01-19T07:07:47.969Z,957.8000
2023-01-19T07:08:50.299Z,957.8000
2023-01-19T07:09:54.115Z,957.8200
2023-01-19T07:11:26.650Z,957.8200
2023-01-19T07:11:55.262Z,957.8400
2023-01-19T07:12:57.612Z,957.8400
2023-01-19T07:13:59.996Z,957.8600
2023-01-19T07:15:00.188Z,957.9000
2023-01-19T07:16:02.556Z,957.9200
2023-01-19T07:17:04.843Z,957.9400
2023-01-19T07:18:07.169Z,957.9600
2023-01-19T07:19:07.372Z,957.9200
2023-01-19T07:20:09.735Z,957.9200
2023-01-19T07:21:12.144Z,957.9400
2023-01-19T07:22:14.485Z,957.9800
2023-01-19T07:23:14.731Z,957.9600
2023-01-19T07:24:17.091Z,957.9400
2023-01-19T07:25:19.443Z,957.9600
2023-01-19T07:26:22.152Z,957.9800
2023-01-19T07:27:24.144Z,957.9800
2023-01-19T07:28:24.357Z,958.0000
2023-01-19T07:29:26.696Z,958.0000
2023-01-19T07:30:29.178Z,958.0200
2023-01-19T07:31:31.593Z,958.0400
2023-01-19T07:32:33.709Z,958.0200
2023-01-19T07:33:33.892Z,958.0600
2023-01-19T07:34:36.250Z,958.0400
2023-01-19T07:35:38.622Z,958.1000
2023-01-19T07:36:40.969Z,958.1000
2023-01-19T07:37:43.275Z,958.0800
2023-01-19T07:38:43.600Z,958.0800
2023-01-19T07:39:45.784Z,958.0800
2023-01-19T07:40:48.101Z,958.1000
2023-01-19T07:41:50.384Z,958.0800
2023-01-19T07:42:52.607Z,958.1400
2023-01-19T07:43:54.828Z,958.1600
2023-01-19T07:44:57.057Z,958.1400
2023-01-19T07:45:59.323Z,958.1400
2023-01-19T07:47:01.609Z,958.1800
2023-01-19T07:48:01.685Z,958.1600
2023-01-19T07:49:03.975Z,958.1400
2023-01-19T07:50:06.227Z,958.1400
2023-01-19T07:51:10.424Z,958.1600
2023-01-19T07:52:10.748Z,958.1800
2023-01-19T07:53:13.012Z,958.1800
2023-01-19T07:54:13.229Z,958.1900
2023-01-19T07:55:15.555Z,958.1800
2023-01-19T07:56:17.925Z,958.1900
2023-01-19T07:57:20.334Z,958.2300
2023-01-19T07:58:20.534Z,958.2100
2023-01-19T07:59:22.901Z,958.2300
2023-01-19T08:00:25.282Z,958.2300
2023-01-19T08:01:27.801Z,958.2700
2023-01-19T08:02:30.029Z,958.2500
2023-01-19T08:03:30.211Z,958.2900
2023-01-19T08:04:32.691Z,958.3100
2023-01-19T08:05:34.983Z,958.3300
2023-01-19T08:06:37.353Z,958.3900
2023-01-19T08:07:39.786Z,958.3500
2023-01-19T08:08:39.972Z,958.3500
2023-01-19T08:09:42.354Z,958.3500
2023-01-19T08:10:44.687Z,958.3500
2023-01-19T08:11:47.083Z,958.3500
2023-01-19T08:12:47.322Z,958.3500
2023-01-19T08:13:49.705Z,958.3500
2023-01-19T08:14:52.041Z,958.3700
2023-01-19T08:15:54.505Z,958.3900
2023-01-19T08:16:56.687Z,958.4100
2023-01-19T08:17:56.891Z,958.3700
2023-01-19T08:18:59.200Z,958.4100
2023-01-19T08:20:01.569Z,958.3700
2023-01-19T08:21:03.833Z,958.3700
2023-01-19T08:22:06.116Z,958.4100
2023-01-19T08:23:08.442Z,958.4300
2023-01-19T08:24:08.594Z,958.4100
2023-01-19T08:25:10.852Z,958.4100
2023-01-19T08:26:13.147Z,958.4100
2023-01-19T08:27:15.480Z,958.4100
2023-01-19T08:28:17.988Z,958.3700
2023-01-19T08:29:20.231Z,958.3700
2023-01-19T08:30:22.614Z,958.3300
2023-01-19T08:31:25.245Z,958.3300
2023-01-19T08:32:27.473Z,958.3900
2023-01-19T08:33:27.631Z,958.3700
2023-01-19T08:34:29.991Z,958.3700
2023-01-19T08:35:32.401Z,958.4100
2023-01-19T08:36:34.743Z,958.4100
2023-01-19T08:37:37.078Z,958.3900
2023-01-19T08:38:37.362Z,958.3900
2023-01-19T08:39:39.710Z,958.4300
2023-01-19T08:40:42.153Z,958.4300
2023-01-19T08:41:44.426Z,958.4300
2023-01-19T08:42:44.658Z,958.4500
2023-01-19T08:43:47.106Z,958.4700
2023-01-19T08:44:57.686Z,958.4700
2023-01-19T08:45:51.928Z,958.4700
2023-01-19T08:46:52.155Z,958.5100
2023-01-19T08:47:54.501Z,958.5100
2023-01-19T08:48:56.876Z,958.5500
2023-01-19T08:49:59.233Z,958.5500
2023-01-19T08:51:01.607Z,958.5900
2023-01-19T08:52:01.883Z,958.5900
2023-01-19T08:53:04.278Z,958.5700
2023-01-19T08:54:06.751Z,958.5700
2023-01-19T08:55:09.113Z,958.5500
2023-01-19T08:56:09.411Z,958.5300
2023-01-19T08:57:11.785Z,958.5300
2023-01-19T08:58:14.192Z,958.5300
2023-01-19T08:59:14.587Z,958.4900
2023-01-19T09:00:16.870Z,958.5100
2023-01-19T09:01:19.392Z,958.4900
2023-01-19T09:02:21.858Z,958.4900
2023-01-19T09:03:21.988Z,958.4900
2023-01-19T09:04:24.301Z,958.4500
2023-01-19T09:05:26.560Z,958.4500
2023-01-19T09:06:28.867Z,958.4100
2023-01-19T09:07:32.586Z,958.4300
2023-01-19T09:08:31.293Z,958.4100
2023-01-19T09:09:33.621Z,958.4100
2023-01-19T09:10:36.068Z,958.4100
2023-01-19T09:11:38.289Z,958.4300
2023-01-19T09:12:40.565Z,958.4100
2023-01-19T09:13:42.912Z,958.4300
2023-01-19T09:14:43.193Z,958.4100
2023-01-19T09:15:45.602Z,958.3900
2023-01-19T09:16:47.988Z,958.4100
2023-01-19T09:17:50.383Z,958.4100
2023-01-19T09:18:50.646Z,958.3900
2023-01-19T09:19:53.071Z,958.3900
2023-01-19T09:20:55.410Z,958.4100
2023-01-19T09:21:57.770Z,958.3700
2023-01-19T09:22:58.024Z,958.3900
2023-01-19T09:24:00.428Z,958.3900
2023-01-19T09:25:02.889Z,958.4300
2023-01-19T09:26:05.252Z,958.4700
2023-01-19T09:27:05.522Z,958.4300
2023-01-19T09:28:07.815Z,958.4300
2023-01-19T09:29:10.198Z,958.4700
2023-01-19T09:30:12.675Z,958.4500
2023-01-19T09:31:15.091Z,958.4500
2023-01-19T09:32:15.091Z,958.4500
2023-01-19T09:32:59.410Z,958.4700
2023-01-19T09:33:58.360Z,958.4500
2023-01-19T09:35:00.654Z,958.4500
2023-01-19T09:36:02.955Z,958.4300
2023-01-19T09:37:05.278Z,958.4500
2023-01-19T09:38:07.665Z,958.4500
2023-01-19T09:39:07.839Z,958.4700
2023-01-19T09:40:10.186Z,958.4900
2023-01-19T09:41:12.567Z,958.4900
2023-01-19T09:42:14.893Z,958.5100
2023-01-19T09:43:17.244Z,958.4700
2023-01-19T09:44:17.425Z,958.5100
2023-01-19T09:45:19.817Z,958.4900
2023-01-19T09:46:22.206Z,958.4700
2023-01-19T09:47:24.513Z,958.4900
2023-01-19T09:48:26.857Z,958.4700
2023-01-19T09:49:27.077Z,958.4900
2023-01-19T09:50:29.416Z,958.4900
2023-01-19T09:51:31.831Z,958.4900
2023-01-19T09:52:34.166Z,958.4900
2023-01-19T09:53:34.401Z,958.4700
2023-01-19T09:54:36.776Z,958.4500
2023-01-19T09:55:39.130Z,958.4500
2023-01-19T09:56:41.530Z,958.4500
2023-01-19T09:57:43.937Z,958.4500
2023-01-19T09:58:44.043Z,958.4700
2023-01-19T09:59:46.346Z,958.4500
2023-01-19T10:00:48.818Z,958.4100
2023-01-19T10:01:51.066Z,958.4300
2023-01-19T10:02:53.373Z,958.4100
2023-01-19T10:03:55.592Z,958.4100
2023-01-19T10:04:55.736Z,958.3900
2023-01-19T10:05:58.046Z,958.3900
2023-01-19T10:07:00.402Z,958.3500
2023-01-19T10:08:03.068Z,958.3300
2023-01-19T10:09:04.971Z,958.3100
2023-01-19T10:10:05.115Z,958.3100
2023-01-19T10:11:07.352Z,958.2900
2023-01-19T10:12:09.664Z,958.2900
2023-01-19T10:13:11.978Z,958.2700
2023-01-19T10:14:14.246Z,958.2500
2023-01-19T10:15:16.518Z,958.2700
2023-01-19T10:16:18.848Z,958.2700
2023-01-19T10:17:21.153Z,958.3100
2023-01-19T10:18:21.278Z,958.2900
2023-01-19T10:19:23.579Z,958.2900
2023-01-19T10:20:25.903Z,958.3100
2023-01-19T10:21:28.237Z,958.3300
2023-01-19T10:22:30.607Z,958.2900
2023-01-19T10:23:30.729Z,958.3100
2023-01-19T10:24:33.011Z,958.3100
2023-01-19T10:25:35.376Z,958.2900
2023-01-19T10:26:37.617Z,958.2900
2023-01-19T10:27:39.988Z,958.3300
2023-01-19T10:28:42.294Z,958.2900
2023-01-19T10:29:44.590Z,958.2900
2023-01-19T10:30:44.829Z,958.3500
2023-01-19T10:31:47.120Z,958.3300
2023-01-19T10:32:49.495Z,958.3100
2023-01-19T10:33:51.649Z,958.2900
2023-01-19T10:34:51.897Z,958.2900
2023-01-19T10:35:54.215Z,958.2500
2023-01-19T10:36:54.332Z,958.2700
2023-01-19T10:37:56.668Z,958.2900
2023-01-19T10:38:58.946Z,958.2700
2023-01-19T10:40:01.287Z,958.2900
2023-01-19T10:41:03.593Z,958.2500
2023-01-19T10:42:05.792Z,958.2500
2023-01-19T10:43:06.044Z,958.2500
2023-01-19T10:44:08.349Z,958.2500
2023-01-19T10:45:10.582Z,958.2700
2023-01-19T10:46:13.012Z,958.3100
2023-01-19T10:47:15.234Z,958.2500
2023-01-19T10:48:15.600Z,958.2100
2023-01-19T10:49:17.724Z,958.1900
2023-01-19T10:50:20.024Z,958.1800
2023-01-19T10:51:22.347Z,958.1800
2023-01-19T10:52:24.578Z,958.1900
2023-01-19T10:53:27.051Z,958.2100
2023-01-19T10:54:29.194Z,958.1900
2023-01-19T10:55:29.354Z,958.1800
2023-01-19T10:56:31.672Z,958.1900
2023-01-19T10:57:34.010Z,958.1900
2023-01-19T10:58:36.353Z,958.1900
2023-01-19T10:59:38.691Z,958.1800
2023-01-19T11:00:29.830Z,958.1800
2023-01-19T11:01:30.605Z,958.1800
2023-01-19T11:02:32.972Z,958.1600
2023-01-19T11:03:35.028Z,958.1600
2023-01-19T11:04:37.396Z,958.1000
2023-01-19T11:05:39.550Z,958.1200
2023-01-19T11:06:39.682Z,958.1400
2023-01-19T11:07:41.982Z,958.1600
2023-01-19T11:08:44.224Z,958.1400
2023-01-19T11:09:46.532Z,958.1400
2023-01-19T11:10:49.325Z,958.1400
2023-01-19T11:11:50.967Z,958.1200
2023-01-19T11:12:53.201Z,958.1200
2023-01-19T11:13:55.440Z,958.1400
2023-01-19T11:14:57.809Z,958.1400
2023-01-19T11:15:57.915Z,958.1600
2023-01-19T11:17:00.229Z,958.1400
2023-01-19T11:18:02.495Z,958.1200
2023-01-19T11:19:04.802Z,958.1800
2023-01-19T11:20:07.244Z,958.1400
2023-01-19T11:21:09.446Z,958.1400
2023-01-19T11:22:09.640Z,958.1000
2023-01-19T11:23:11.958Z,958.1400
2023-01-19T11:24:14.245Z,958.1400
2023-01-19T11:25:16.583Z,958.1200
2023-01-19T11:26:16.756Z,958.1400
2023-01-19T11:27:19.095Z,958.1400
2023-01-19T11:28:19.270Z,958.1200
2023-01-19T11:29:21.548Z,958.1000
2023-01-19T11:30:23.903Z,958.1200
2023-01-19T11:31:26.227Z,958.0600
2023-01-19T11:32:28.505Z,958.0600
2023-01-19T11:33:30.886Z,958.0400
2023-01-19T11:34:31.122Z,958.0400
2023-01-19T11:35:33.606Z,958.0400
2023-01-19T11:36:35.848Z,958.0400
2023-01-19T11:37:38.144Z,958.0400
2023-01-19T11:38:38.362Z,958.0400
2023-01-19T11:39:40.746Z,958.0600
2023-01-19T11:40:43.158Z,958.0400
2023-01-19T11:41:45.532Z,958.0600
2023-01-19T11:42:45.771Z,958.0800
2023-01-19T11:43:49.503Z,958.0800
2023-01-19T11:44:50.546Z,958.1200
2023-01-19T11:45:53.082Z,958.1200
2023-01-19T11:46:53.144Z,958.0600
2023-01-19T11:47:55.509Z,958.0800
2023-01-19T11:48:57.869Z,958.1000
2023-01-19T11:50:00.202Z,958.0600
2023-01-19T11:51:02.545Z,958.0600
2023-01-19T11:52:04.885Z,958.0400
2023-01-19T11:53:05.105Z,958.0400
2023-01-19T11:54:07.481Z,958.0000
2023-01-19T11:55:09.867Z,958.0400
2023-01-19T11:56:12.288Z,958.0400
2023-01-19T11:57:12.467Z,958.0200
2023-01-19T11:58:14.815Z,958.0400
2023-01-19T11:59:17.192Z,957.9800
2023-01-19T12:00:19.577Z,958.0400
2023-01-19T12:01:19.926Z,958.0400
2023-01-19T12:02:22.265Z,958.0000
2023-01-19T12:03:22.445Z,958.0200
2023-01-19T12:04:24.787Z,958.0000
2023-01-19T12:05:27.122Z,957.9800
2023-01-19T12:06:29.508Z,957.9400
2023-01-19T12:07:31.821Z,957.9400
2023-01-19T12:08:32.021Z,957.9400
2023-01-19T12:09:34.391Z,957.9600
2023-01-19T12:10:36.782Z,957.9400
2023-01-19T12:11:39.214Z,957.9400
2023-01-19T12:12:43.171Z,957.9600
2023-01-19T12:13:46.025Z,957.9400